Terminal Aerodrome Forecast
Issued by NWS Charleston, WV

Current Version | Previous Version | Text Only | Print | Product List | Glossary Off
Versions: 1 2 3 4 5 6 7 8 9 10 11 12 13 14 15 16 17 18 19 20 21 22 23 24 25 26 27 28

902
FTUS41 KRLX 192327
TAFPKB
TAF
KPKB 192327Z 2000/2024 27005KT P6SM BKN050
     FM200200 00000KT P6SM FEW250
     FM200400 00000KT 5SM BR SKC
     FM200700 00000KT 2SM BR SCT001
     FM201200 00000KT 5SM BR FEW001
     FM201300 24005KT P6SM SCT050=

USA.gov is the U.S. government's official web portal to all federal, state and local government web resources and services.